| time (UTC) | temp C | wind direction | speed KPH | gust KPH | rain 1hr cm | rain 24hr cm | rain mn cm | humidity % | barometer mb |
| 20260904032153 | 22 | 230 | 8.0 | 14.5 | 0.00 | 0.00 | 0.00 | 66 | 1011.9 |
| 20260904031653 | 22 | 227 | 9.7 | 20.9 | 0.00 | 0.00 | 0.00 | 66 | 1011.8 |
| 20260904031153 | 22 | 235 | 9.7 | 20.9 | 0.00 | 0.00 | 0.00 | 65 | 1011.8 |
| 20260904030655 | 22 | 230 | 9.7 | 20.9 | 0.00 | 0.00 | 0.00 | 65 | 1011.6 |
| 20260904030152 | 22 | 226 | 9.7 | 20.9 | 0.00 | 0.00 | 0.00 | 65 | 1011.6 |
| 20260904025653 | 22 | 225 | 9.7 | 19.3 | 0.00 | 0.00 | 0.00 | 64 | 1011.6 |
| 20260904025152 | 22 | 220 | 9.7 | 19.3 | 0.00 | 0.00 | 0.00 | 64 | 1011.6 |
| 20260904024653 | 22 | 235 | 9.7 | 19.3 | 0.00 | 0.00 | 0.00 | 64 | 1011.6 |
| 20260904024153 | 22 | 229 | 8.0 | 16.1 | 0.00 | 0.00 | 0.00 | 63 | 1011.6 |
| 20260904023652 | 23 | 229 | 9.7 | 17.7 | 0.00 | 0.00 | 0.00 | 62 | 1011.5 |
| 20260904023422 | 23 | 237 | 9.7 | 17.7 | 0.00 | 0.00 | 0.00 | 62 | 1011.5 |
| 20260904022652 | 23 | 244 | 8.0 | 16.1 | 0.00 | 0.00 | 0.00 | 62 | 1011.5 |
| 20260904022150 | 23 | 236 | 9.7 | 19.3 | 0.00 | 0.00 | 0.00 | 61 | 1011.5 |
| 20260904021919 | 23 | 232 | 9.7 | 19.3 | 0.00 | 0.00 | 0.00 | 60 | 1011.5 |
| 20260904021148 | 23 | 223 | 9.7 | 19.3 | 0.00 | 0.00 | 0.00 | 60 | 1011.5 |
| 20260904020645 | 23 | 242 | 11.3 | 19.3 | 0.00 | 0.00 | 0.00 | 59 | 1011.5 |
| 20260904020144 | 23 | 225 | 12.9 | 19.3 | 0.00 | 0.00 | 0.00 | 59 | 1011.5 |
| 20260904015643 | 23 | 226 | 11.3 | 19.3 | 0.00 | 0.00 | 0.00 | 58 | 1011.5 |
| 20260904015145 | 24 | 224 | 11.3 | 20.9 | 0.00 | 0.00 | 0.00 | 58 | 1011.5 |
| 20260904014644 | 24 | 224 | 12.9 | 22.5 | 0.00 | 0.00 | 0.00 | 57 | 1011.5 |
| 20260904014416 | 25 | 217 | 12.9 | 27.4 | 0.00 | 0.00 | 0.00 | 56 | 1011.5 |
| 20260904013910 | 25 | 214 | 12.9 | 27.4 | 0.00 | 0.00 | 0.00 | 55 | 1011.5 |
| 20260904013139 | 25 | 219 | 11.3 | 22.5 | 0.00 | 0.00 | 0.00 | 54 | 1011.5 |
| 20260904012910 | 25 | 216 | 12.9 | 22.5 | 0.00 | 0.00 | 0.00 | 54 | 1011.5 |
| 20260904012135 | 25 | 214 | 12.9 | 24.1 | 0.00 | 0.00 | 0.00 | 53 | 1011.5 |
| 20260904011635 | 25 | 226 | 12.9 | 24.1 | 0.00 | 0.00 | 0.00 | 53 | 1011.5 |
| 20260904011136 | 26 | 226 | 12.9 | 24.1 | 0.00 | 0.00 | 0.00 | 52 | 1011.4 |
| 20260904010902 | 26 | 244 | 11.3 | 20.9 | 0.00 | 0.00 | 0.00 | 51 | 1011.4 |
| 20260904010132 | 26 | 217 | 12.9 | 24.1 | 0.00 | 0.00 | 0.00 | 51 | 1011.3 |
| 20260904005633 | 26 | 228 | 14.5 | 25.7 | 0.00 | 0.00 | 0.00 | 51 | 1011.3 |
| 20260904005126 | 26 | 216 | 14.5 | 25.7 | 0.00 | 0.00 | 0.00 | 49 | 1011.3 |
| 20260904004625 | 26 | 219 | 12.9 | 25.7 | 0.00 | 0.00 | 0.00 | 49 | 1011.3 |
| 20260904004126 | 26 | 225 | 12.9 | 25.7 | 0.00 | 0.00 | 0.00 | 49 | 1011.3 |
| 20260904003857 | 26 | 223 | 14.5 | 25.7 | 0.00 | 0.00 | 0.00 | 49 | 1011.4 |
| 20260904003126 | 27 | 209 | 14.5 | 25.7 | 0.00 | 0.00 | 0.00 | 49 | 1011.3 |
| 20260904002625 | 26 | 252 | 16.1 | 25.7 | 0.00 | 0.00 | 0.00 | 50 | 1011.4 |
| 20260904002126 | 27 | 217 | 16.1 | 27.4 | 0.00 | 0.00 | 0.00 | 50 | 1011.3 |
| 20260904001858 | 27 | 229 | 14.5 | 27.4 | 0.00 | 0.00 | 0.00 | 50 | 1011.4 |
| 20260904001123 | 27 | 221 | 14.5 | 24.1 | 0.00 | 0.00 | 0.00 | 50 | 1011.4 |
| 20260904000636 | 27 | 225 | 14.5 | 25.7 | 0.00 | 0.00 | 0.00 | 49 | 1011.4 |
| 20260904000122 | 27 | 226 | 14.5 | 25.7 | 0.00 | 0.00 | 0.00 | 50 | 1011.4 |
| 20260903235852 | 28 | 221 | 12.9 | 24.1 | 0.00 | 0.00 | 0.00 | 49 | 1011.4 |
| 20260903235119 | 28 | 219 | 12.9 | 24.1 | 0.00 | 0.00 | 0.00 | 49 | 1011.5 |
| 20260903234631 | 28 | 224 | 14.5 | 25.7 | 0.00 | 0.00 | 0.00 | 48 | 1011.5 |
| 20260903234117 | 28 | 223 | 14.5 | 25.7 | 0.00 | 0.00 | 0.00 | 47 | 1011.5 |
| 20260903233615 | 28 | 216 | 14.5 | 27.4 | 0.00 | 0.00 | 0.00 | 48 | 1011.6 |
| 20260903233116 | 28 | 225 | 14.5 | 27.4 | 0.00 | 0.00 | 0.00 | 48 | 1011.6 |
| 20260903232615 | 28 | 221 | 14.5 | 24.1 | 0.00 | 0.00 | 0.00 | 46 | 1011.6 |
| 20260903232116 | 28 | 221 | 11.3 | 24.1 | 0.00 | 0.00 | 0.00 | 46 | 1011.6 |
| 20260903231616 | 28 | 219 | 12.9 | 25.7 | 0.00 | 0.00 | 0.00 | 46 | 1011.6 |
| 20260903230610 | 28 | 217 | 14.5 | 27.4 | 0.00 | 0.00 | 0.00 | 44 | 1011.7 |
| 20260903230114 | 29 | 211 | 11.3 | 24.1 | 0.00 | 0.00 | 0.00 | 43 | 1011.7 |
| 20260903225842 | 29 | 230 | 12.9 | 24.1 | 0.00 | 0.00 | 0.00 | 42 | 1011.6 |
| 20260903225109 | 29 | 234 | 12.9 | 24.1 | 0.00 | 0.00 | 0.00 | 42 | 1011.6 |
| 20260903224610 | 30 | 233 | 11.3 | 24.1 | 0.00 | 0.00 | 0.00 | 40 | 1011.7 |
| 20260903224107 | 30 | 225 | 11.3 | 20.9 | 0.00 | 0.00 | 0.00 | 39 | 1011.7 |
| 20260903223834 | 30 | 225 | 11.3 | 19.3 | 0.00 | 0.00 | 0.00 | 39 | 1011.8 |
| 20260903223105 | 30 | 223 | 11.3 | 25.7 | 0.00 | 0.00 | 0.00 | 38 | 1011.9 |
| 20260903222834 | 30 | 209 | 11.3 | 25.7 | 0.00 | 0.00 | 0.00 | 40 | 1011.9 |
| 20260903222104 | 30 | 229 | 9.7 | 20.9 | 0.00 | 0.00 | 0.00 | 39 | 1011.9 |
| 20260903221603 | 30 | 213 | 11.3 | 20.9 | 0.00 | 0.00 | 0.00 | 38 | 1012.0 |
| 20260903221103 | 30 | 226 | 11.3 | 20.9 | 0.00 | 0.00 | 0.00 | 38 | 1012.1 |
| 20260903220833 | 30 | 209 | 11.3 | 19.3 | 0.00 | 0.00 | 0.00 | 38 | 1012.2 |
| 20260903220105 | 30 | 225 | 9.7 | 19.3 | 0.00 | 0.00 | 0.00 | 38 | 1012.2 |
| 20260903215834 | 30 | 232 | 8.0 | 19.3 | 0.00 | 0.00 | 0.00 | 37 | 1012.2 |
| 20260903215101 | 30 | 207 | 9.7 | 19.3 | 0.00 | 0.00 | 0.00 | 37 | 1012.2 |
| 20260903214602 | 30 | 242 | 9.7 | 17.7 | 0.00 | 0.00 | 0.00 | 38 | 1012.3 |
| 20260903214103 | 30 | 207 | 8.0 | 17.7 | 0.00 | 0.00 | 0.00 | 38 | 1012.5 |
| 20260903213600 | 30 | 223 | 8.0 | 17.7 | 0.00 | 0.00 | 0.00 | 38 | 1012.3 |
| 20260903213100 | 30 | 217 | 9.7 | 17.7 | 0.00 | 0.00 | 0.00 | 36 | 1012.5 |
| 20260903212559 | 30 | 229 | 6.4 | 14.5 | 0.00 | 0.00 | 0.00 | 38 | 1012.3 |
| 20260903212329 | 30 | 250 | 4.8 | 14.5 | 0.00 | 0.00 | 0.00 | 39 | 1012.5 |
| 20260903211558 | 30 | 258 | 8.0 | 20.9 | 0.00 | 0.00 | 0.00 | 38 | 1012.6 |
| 20260903211057 | 30 | 209 | 8.0 | 20.9 | 0.00 | 0.00 | 0.00 | 40 | 1012.6 |
| 20260903210558 | 30 | 234 | 6.4 | 16.1 | 0.00 | 0.00 | 0.00 | 39 | 1012.6 |
| 20260903210105 | 29 | 258 | 8.0 | 19.3 | 0.00 | 0.00 | 0.00 | 39 | 1012.7 |
| 20260903205824 | 30 | 240 | 9.7 | 19.3 | 0.00 | 0.00 | 0.00 | 39 | 1012.7 |
| 20260903205047 | 29 | 214 | 9.7 | 17.7 | 0.00 | 0.00 | 0.00 | 39 | 1012.8 |
| 20260903204548 | 29 | 256 | 8.0 | 16.1 | 0.00 | 0.00 | 0.00 | 41 | 1012.8 |
| 20260903204048 | 28 | 221 | 8.0 | 16.1 | 0.00 | 0.00 | 0.00 | 40 | 1012.9 |
| 20260903203549 | 29 | 216 | 8.0 | 17.7 | 0.00 | 0.00 | 0.00 | 41 | 1013.0 |
| 20260903203049 | 28 | 257 | 4.8 | 17.7 | 0.00 | 0.00 | 0.00 | 41 | 1013.0 |
| 20260903202547 | 28 | 246 | 4.8 | 12.9 | 0.00 | 0.00 | 0.00 | 40 | 1013.1 |
| 20260903202047 | 28 | 245 | 6.4 | 16.1 | 0.00 | 0.00 | 0.00 | 39 | 1013.2 |
| 20260903201818 | 28 | 217 | 6.4 | 16.1 | 0.00 | 0.00 | 0.00 | 38 | 1013.2 |
| 20260903201045 | 28 | 218 | 4.8 | 11.3 | 0.00 | 0.00 | 0.00 | 40 | 1013.2 |
| 20260903200546 | 28 | 217 | 4.8 | 11.3 | 0.00 | 0.00 | 0.00 | 39 | 1013.2 |
| 20260903200055 | 28 | 224 | 6.4 | 14.5 | 0.00 | 0.00 | 0.00 | 39 | 1013.4 |
| 20260903195542 | 28 | 225 | 6.4 | 14.5 | 0.00 | 0.00 | 0.00 | 40 | 1013.6 |
| 20260903195314 | 28 | 253 | 6.4 | 14.5 | 0.00 | 0.00 | 0.00 | 41 | 1013.6 |
| 20260903194537 | 28 | 218 | 6.4 | 14.5 | 0.00 | 0.00 | 0.00 | 40 | 1013.7 |
| 20260903194038 | 28 | 266 | 3.2 | 11.3 | 0.00 | 0.00 | 0.00 | 42 | 1013.7 |
| 20260903193538 | 27 | 221 | 3.2 | 8.0 | 0.00 | 0.00 | 0.00 | 42 | 1013.8 |
| 20260903193039 | 27 | 221 | 4.8 | 8.0 | 0.00 | 0.00 | 0.00 | 43 | 1013.9 |
| 20260903192537 | 27 | 221 | 4.8 | 11.3 | 0.00 | 0.00 | 0.00 | 43 | 1014.0 |
| 20260903192036 | 27 | 221 | 4.8 | 11.3 | 0.00 | 0.00 | 0.00 | 42 | 1014.2 |
| 20260903191807 | 27 | 221 | 4.8 | 9.7 | 0.00 | 0.00 | 0.00 | 43 | 1014.2 |
| 20260903191037 | 27 | 208 | 3.2 | 9.7 | 0.00 | 0.00 | 0.00 | 44 | 1014.3 |
| 20260903190806 | 27 | 206 | 3.2 | 11.3 | 0.00 | 0.00 | 0.00 | 45 | 1014.4 |
| 20260903190036 | 26 | 207 | 4.8 | 11.3 | 0.00 | 0.00 | 0.00 | 45 | 1014.4 |
| 20260903185536 | 26 | 208 | 6.4 | 11.3 | 0.00 | 0.00 | 0.00 | 45 | 1014.5 |
| 20260903185308 | 26 | 226 | 4.8 | 11.3 | 0.00 | 0.00 | 0.00 | 45 | 1014.6 |
| 20260903184536 | 26 | 213 | 1.6 | 4.8 | 0.00 | 0.00 | 0.00 | 46 | 1014.7 |
| 20260903184307 | 26 | 213 | 3.2 | 14.5 | 0.00 | 0.00 | 0.00 | 48 | 1014.8 |
| 20260903183536 | 26 | 213 | 4.8 | 14.5 | 0.00 | 0.00 | 0.00 | 47 | 1014.9 |
| 20260903183035 | 26 | 212 | 3.2 | 9.7 | 0.00 | 0.00 | 0.00 | 45 | 1015.0 |
| 20260903182806 | 25 | 213 | 3.2 | 9.7 | 0.00 | 0.00 | 0.00 | 46 | 1014.9 |
| 20260903182036 | 25 | 212 | 3.2 | 8.0 | 0.00 | 0.00 | 0.00 | 45 | 1015.0 |
| 20260903181035 | 25 | 214 | 1.6 | 11.3 | 0.00 | 0.00 | 0.00 | 50 | 1015.0 |
| 20260903180548 | 25 | 215 | 1.6 | 11.3 | 0.00 | 0.00 | 0.00 | 52 | 1015.0 |
| 20260903180306 | 25 | 215 | 4.8 | 11.3 | 0.00 | 0.00 | 0.00 | 54 | 1015.1 |
| 20260903175535 | 24 | 215 | 4.8 | 11.3 | 0.00 | 0.00 | 0.00 | 53 | 1015.1 |
| 20260903175033 | 25 | 216 | 3.2 | 9.7 | 0.00 | 0.00 | 0.00 | 54 | 1015.2 |
| 20260903174532 | 24 | 219 | 3.2 | 9.7 | 0.00 | 0.00 | 0.00 | 55 | 1015.2 |
| 20260903174039 | 23 | 219 | 3.2 | 9.7 | 0.00 | 0.00 | 0.00 | 56 | 1015.2 |
| 20260903173523 | 23 | 219 | 4.8 | 8.0 | 0.00 | 0.00 | 0.00 | 57 | 1015.3 |
| 20260903173024 | 23 | 219 | 4.8 | 9.7 | 0.00 | 0.00 | 0.00 | 58 | 1015.3 |
| 20260903172754 | 23 | 220 | 3.2 | 9.7 | 0.00 | 0.00 | 0.00 | 59 | 1015.3 |
| 20260903172020 | 23 | 221 | 3.2 | 9.7 | 0.00 | 0.00 | 0.00 | 59 | 1015.4 |
| 20260903171520 | 23 | 221 | 4.8 | 11.3 | 0.00 | 0.00 | 0.00 | 59 | 1015.3 |
| 20260903171251 | 23 | 223 | 3.2 | 11.3 | 0.00 | 0.00 | 0.00 | 59 | 1015.3 |
| 20260903170530 | 23 | 223 | 3.2 | 8.0 | 0.00 | 0.00 | 0.00 | 61 | 1015.3 |
| 20260903170248 | 22 | 223 | 4.8 | 9.7 | 0.00 | 0.00 | 0.00 | 61 | 1015.3 |
| 20260903165518 | 22 | 223 | 3.2 | 9.7 | 0.00 | 0.00 | 0.00 | 61 | 1015.3 |
| 20260903165015 | 22 | 223 | 1.6 | 6.4 | 0.00 | 0.00 | 0.00 | 63 | 1015.3 |
| 20260903164744 | 22 | 223 | 1.6 | 8.0 | 0.00 | 0.00 | 0.00 | 63 | 1015.3 |
| 20260903164015 | 22 | 223 | 3.2 | 8.0 | 0.00 | 0.00 | 0.00 | 65 | 1015.3 |
| 20260903163513 | 21 | 223 | 3.2 | 8.0 | 0.00 | 0.00 | 0.00 | 65 | 1015.3 |
| 20260903163012 | 21 | 223 | 3.2 | 8.0 | 0.00 | 0.00 | 0.00 | 66 | 1015.3 |
| 20260903162743 | 21 | 223 | 1.6 | 6.4 | 0.00 | 0.00 | 0.00 | 67 | 1015.3 |
| 20260903162240 | 21 | 223 | 1.6 | 6.4 | 0.00 | 0.00 | 0.00 | 68 | 1015.3 |
| 20260903161509 | 21 | 223 | 3.2 | 6.4 | 0.00 | 0.00 | 0.00 | 69 | 1015.4 |
| 20260903160505 | 20 | 223 | 3.2 | 8.0 | 0.00 | 0.00 | 0.00 | 71 | 1015.5 |
| 20260903160005 | 20 | 223 | 3.2 | 8.0 | 0.00 | 0.00 | 0.00 | 71 | 1015.5 |
| 20260903155500 | 20 | 223 | 3.2 | 8.0 | 0.00 | 0.00 | 0.00 | 72 | 1015.5 |
| 20260903154959 | 20 | 223 | 3.2 | 6.4 | 0.00 | 0.00 | 0.00 | 72 | 1015.5 |
| 20260903154500 | 19 | 223 | 3.2 | 8.0 | 0.00 | 0.00 | 0.00 | 73 | 1015.5 |
| 20260903153959 | 19 | 223 | 3.2 | 8.0 | 0.00 | 0.00 | 0.00 | 73 | 1015.5 |
| 20260903153457 | 19 | 223 | 3.2 | 6.4 | 0.00 | 0.00 | 0.00 | 73 | 1015.6 |
| 20260903152957 | 19 | 223 | 1.6 | 6.4 | 0.00 | 0.00 | 0.00 | 74 | 1015.6 |
| 20260903152459 | 19 | 223 | 3.2 | 6.4 | 0.00 | 0.00 | 0.00 | 75 | 1015.6 |
| 20260903151956 | 18 | 223 | 3.2 | 6.4 | 0.00 | 0.00 | 0.00 | 75 | 1015.5 |
| 20260903151725 | 18 | 223 | 1.6 | 6.4 | 0.00 | 0.00 | 0.00 | 76 | 1015.5 |
| 20260903150954 | 18 | 223 | 1.6 | 6.4 | 0.00 | 0.00 | 0.00 | 77 | 1015.4 |
| 20260903150452 | 18 | 223 | 1.6 | 6.4 | 0.00 | 0.00 | 0.00 | 78 | 1015.5 |
| 20260903145951 | 18 | 223 | 3.2 | 6.4 | 0.00 | 0.00 | 0.00 | 78 | 1015.5 |
| 20260903145450 | 18 | 223 | 1.6 | 4.8 | 0.00 | 0.00 | 0.00 | 79 | 1015.5 |
| 20260903144951 | 18 | 223 | 0.0 | 4.8 | 0.00 | 0.00 | 0.00 | 80 | 1015.5 |
| 20260903144448 | 17 | 223 | 1.6 | 4.8 | 0.00 | 0.00 | 0.00 | 80 | 1015.4 |
| 20260903143946 | 17 | 223 | 1.6 | 4.8 | 0.00 | 0.00 | 0.00 | 81 | 1015.3 |
| 20260903143446 | 17 | 223 | 0.0 | 3.2 | 0.00 | 0.00 | 0.00 | 81 | 1015.2 |
| 20260903143211 | 17 | 223 | 0.0 | 3.2 | 0.00 | 0.00 | 0.00 | 82 | 1015.1 |
| 20260903142437 | 17 | 223 | 0.0 | 4.8 | 0.00 | 0.00 | 0.00 | 82 | 1015.1 |
| 20260903141939 | 17 | 223 | 0.0 | 4.8 | 0.00 | 0.00 | 0.00 | 82 | 1015.0 |
| 20260903141707 | 17 | 223 | 0.0 | 0.0 | 0.00 | 0.00 | 0.00 | 83 | 1014.9 |
| 20260903140933 | 16 | 223 | 0.0 | 0.0 | 0.00 | 0.00 | 0.00 | 83 | 1014.8 |
| 20260903140435 | 16 | 223 | 0.0 | 0.0 | 0.00 | 0.00 | 0.00 | 83 | 1014.8 |
| 20260903135933 | 16 | 223 | 0.0 | 0.0 | 0.00 | 0.00 | 0.00 | 82 | 1014.8 |
| 20260903135702 | 16 | 223 | 0.0 | 0.0 | 0.00 | 0.00 | 0.00 | 82 | 1014.7 |
| 20260903134930 | 16 | 223 | 0.0 | 0.0 | 0.00 | 0.00 | 0.00 | 82 | 1014.7 |
| 20260903134658 | 16 | 223 | 0.0 | 0.0 | 0.00 | 0.00 | 0.00 | 82 | 1014.7 |
| 20260903134156 | 16 | 223 | 0.0 | 0.0 | 0.00 | 0.00 | 0.00 | 82 | 1014.6 |
| 20260903133426 | 16 | 223 | 0.0 | 0.0 | 0.00 | 0.00 | 0.00 | 82 | 1014.6 |
| 20260903132919 | 16 | 223 | 0.0 | 0.0 | 0.00 | 0.00 | 0.00 | 82 | 1014.6 |
| 20260903132419 | 16 | 223 | 0.0 | 0.0 | 0.00 | 0.00 | 0.00 | 82 | 1014.6 |
| 20260903131920 | 16 | 223 | 0.0 | 0.0 | 0.00 | 0.00 | 0.00 | 81 | 1014.6 |
| 20260903131646 | 16 | 223 | 0.0 | 0.0 | 0.00 | 0.00 | 0.00 | 81 | 1014.7 |
| 20260903130913 | 16 | 223 | 0.0 | 0.0 | 0.00 | 0.00 | 0.00 | 81 | 1014.6 |
| 20260903130414 | 16 | 223 | 0.0 | 0.0 | 0.00 | 0.00 | 0.00 | 81 | 1014.7 |
| 20260903125910 | 16 | 223 | 0.0 | 0.0 | 0.00 | 0.00 | 0.00 | 81 | 1014.7 |
| 20260903125410 | 16 | 223 | 0.0 | 0.0 | 0.00 | 0.00 | 0.00 | 81 | 1014.6 |
| 20260903125142 | 16 | 223 | 0.0 | 0.0 | 0.00 | 0.00 | 0.00 | 81 | 1014.7 |
| 20260903124407 | 16 | 223 | 0.0 | 0.0 | 0.00 | 0.00 | 0.00 | 81 | 1014.7 |
| 20260903123908 | 16 | 223 | 0.0 | 0.0 | 0.00 | 0.00 | 0.00 | 81 | 1014.7 |
| 20260903123408 | 16 | 223 | 0.0 | 0.0 | 0.00 | 0.00 | 0.00 | 81 | 1014.7 |
| 20260903122908 | 16 | 223 | 0.0 | 0.0 | 0.00 | 0.00 | 0.00 | 81 | 1014.6 |
| 20260903122405 | 16 | 223 | 0.0 | 0.0 | 0.00 | 0.00 | 0.00 | 81 | 1014.6 |
| 20260903122135 | 16 | 223 | 0.0 | 0.0 | 0.00 | 0.00 | 0.00 | 80 | 1014.7 |
| 20260903121405 | 16 | 223 | 0.0 | 0.0 | 0.00 | 0.00 | 0.00 | 80 | 1014.6 |
| 20260903120915 | 17 | 223 | 0.0 | 0.0 | 0.00 | 0.00 | 0.00 | 80 | 1014.7 |
| 20260903120359 | 17 | 223 | 0.0 | 0.0 | 0.00 | 0.00 | 0.00 | 80 | 1014.7 |
| 20260903115900 | 17 | 223 | 0.0 | 0.0 | 0.00 | 0.00 | 0.00 | 80 | 1014.7 |
| 20260903115357 | 17 | 223 | 0.0 | 0.0 | 0.00 | 0.00 | 0.00 | 80 | 1014.7 |
| 20260903114627 | 17 | 223 | 0.0 | 0.0 | 0.00 | 0.00 | 0.00 | 80 | 1014.8 |
| 20260903114125 | 17 | 223 | 0.0 | 0.0 | 0.00 | 0.00 | 0.00 | 79 | 1014.8 |
| 20260903113353 | 17 | 223 | 0.0 | 0.0 | 0.00 | 0.00 | 0.00 | 79 | 1014.9 |
| 20260903113136 | 17 | 223 | 0.0 | 0.0 | 0.00 | 0.00 | 0.00 | 79 | 1014.9 |
| 20260903112349 | 17 | 223 | 0.0 | 0.0 | 0.00 | 0.00 | 0.00 | 79 | 1014.8 |
| 20260903111849 | 17 | 223 | 0.0 | 0.0 | 0.00 | 0.00 | 0.00 | 78 | 1014.8 |
| 20260903111348 | 17 | 223 | 0.0 | 0.0 | 0.00 | 0.00 | 0.00 | 78 | 1014.9 |
| 20260903110854 | 17 | 223 | 0.0 | 0.0 | 0.00 | 0.00 | 0.00 | 78 | 1014.9 |
| 20260903110339 | 17 | 223 | 0.0 | 1.6 | 0.00 | 0.00 | 0.00 | 78 | 1015.0 |
| 20260903105840 | 17 | 223 | 0.0 | 1.6 | 0.00 | 0.00 | 0.00 | 78 | 1014.9 |
| 20260903105336 | 17 | 223 | 0.0 | 4.8 | 0.00 | 0.00 | 0.00 | 78 | 1015.0 |
| 20260903105108 | 17 | 223 | 0.0 | 4.8 | 0.00 | 0.00 | 0.00 | 78 | 1015.1 |
| 20260903104336 | 17 | 223 | 0.0 | 1.6 | 0.00 | 0.00 | 0.00 | 78 | 1015.0 |
| 20260903103833 | 17 | 223 | 0.0 | 3.2 | 0.00 | 0.00 | 0.00 | 78 | 1015.0 |
| 20260903102833 | 17 | 223 | 0.0 | 1.6 | 0.00 | 0.00 | 0.00 | 77 | 1014.9 |
| 20260903102606 | 17 | 223 | 0.0 | 3.2 | 0.00 | 0.00 | 0.00 | 77 | 1015.1 |
| 20260903101835 | 17 | 223 | 0.0 | 3.2 | 0.00 | 0.00 | 0.00 | 77 | 1015.1 |
| 20260903101335 | 17 | 223 | 0.0 | 3.2 | 0.00 | 0.00 | 0.00 | 77 | 1015.1 |
| 20260903100834 | 17 | 223 | 1.6 | 3.2 | 0.00 | 0.00 | 0.00 | 77 | 1015.1 |
| 20260903100332 | 17 | 223 | 0.0 | 3.2 | 0.00 | 0.00 | 0.00 | 77 | 1015.1 |
| 20260903095832 | 17 | 223 | 0.0 | 1.6 | 0.00 | 0.00 | 0.00 | 76 | 1015.1 |
| 20260903095333 | 17 | 223 | 0.0 | 3.2 | 0.00 | 0.00 | 0.00 | 76 | 1015.1 |
| 20260903094833 | 18 | 223 | 0.0 | 3.2 | 0.00 | 0.00 | 0.00 | 76 | 1015.0 |
| 20260903094332 | 18 | 223 | 0.0 | 4.8 | 0.00 | 0.00 | 0.00 | 76 | 1015.2 |
| 20260903093833 | 18 | 223 | 1.6 | 4.8 | 0.00 | 0.00 | 0.00 | 76 | 1015.2 |
| 20260903093332 | 18 | 223 | 1.6 | 4.8 | 0.00 | 0.00 | 0.00 | 75 | 1015.2 |
| 20260903092826 | 18 | 223 | 1.6 | 4.8 | 0.00 | 0.00 | 0.00 | 75 | 1015.2 |
| 20260903092324 | 18 | 223 | 1.6 | 4.8 | 0.00 | 0.00 | 0.00 | 75 | 1015.3 |
| 20260903091825 | 18 | 223 | 1.6 | 4.8 | 0.00 | 0.00 | 0.00 | 74 | 1015.4 |
| 20260903091323 | 18 | 223 | 1.6 | 6.4 | 0.00 | 0.00 | 0.00 | 74 | 1015.4 |
| 20260903090825 | 18 | 223 | 1.6 | 6.4 | 0.00 | 0.00 | 0.00 | 74 | 1015.5 |
| 20260903090554 | 18 | 223 | 1.6 | 4.8 | 0.00 | 0.00 | 0.00 | 73 | 1015.5 |
| 20260903090052 | 18 | 223 | 1.6 | 4.8 | 0.00 | 0.00 | 0.00 | 73 | 1015.5 |
| 20260903085323 | 18 | 223 | 1.6 | 6.4 | 0.00 | 0.00 | 0.00 | 73 | 1015.6 |
| 20260903085054 | 18 | 223 | 1.6 | 6.4 | 0.00 | 0.00 | 0.00 | 73 | 1015.6 |
| 20260903084836 | 18 | 223 | 1.6 | 6.4 | 0.00 | 0.00 | 0.00 | 73 | 1015.6 |
| 20260903084322 | 18 | 223 | 3.2 | 4.8 | 0.00 | 0.00 | 0.00 | 73 | 1015.6 |
| 20260903083821 | 18 | 223 | 3.2 | 4.8 | 0.00 | 0.00 | 0.00 | 73 | 1015.7 |
| 20260903083550 | 18 | 223 | 1.6 | 4.8 | 0.00 | 0.00 | 0.00 | 73 | 1015.7 |
| 20260903083335 | 18 | 223 | 1.6 | 4.8 | 0.00 | 0.00 | 0.00 | 73 | 1015.7 |
| 20260903083051 | 18 | 223 | 3.2 | 6.4 | 0.00 | 0.00 | 0.00 | 73 | 1015.7 |
| 20260903082313 | 18 | 223 | 3.2 | 6.4 | 0.00 | 0.00 | 0.00 | 73 | 1015.7 |
| 20260903081813 | 18 | 223 | 1.6 | 6.4 | 0.00 | 0.00 | 0.00 | 73 | 1015.8 |
| 20260903081314 | 18 | 223 | 3.2 | 8.0 | 0.00 | 0.00 | 0.00 | 73 | 1015.8 |
| 20260903080812 | 18 | 223 | 3.2 | 8.0 | 0.00 | 0.00 | 0.00 | 73 | 1015.8 |
| 20260903075812 | 18 | 223 | 3.2 | 6.4 | 0.00 | 0.00 | 0.00 | 72 | 1015.7 |
| 20260903075312 | 18 | 223 | 3.2 | 6.4 | 0.00 | 0.00 | 0.00 | 72 | 1015.7 |
| 20260903074809 | 18 | 223 | 3.2 | 4.8 | 0.00 | 0.00 | 0.00 | 72 | 1015.7 |
| 20260903074541 | 18 | 223 | 3.2 | 4.8 | 0.00 | 0.00 | 0.00 | 72 | 1015.7 |
| 20260903074039 | 18 | 223 | 3.2 | 4.8 | 0.00 | 0.00 | 0.00 | 72 | 1015.7 |
| 20260903072805 | 18 | 223 | 1.6 | 4.8 | 0.00 | 0.00 | 0.00 | 72 | 1015.7 |
| 20260903072535 | 18 | 223 | 3.2 | 4.8 | 0.00 | 0.00 | 0.00 | 72 | 1015.7 |
| 20260903071803 | 18 | 223 | 1.6 | 4.8 | 0.00 | 0.00 | 0.00 | 72 | 1015.7 |
| 20260903071301 | 18 | 223 | 1.6 | 4.8 | 0.00 | 0.00 | 0.00 | 72 | 1015.6 |
| 20260903070802 | 18 | 223 | 1.6 | 4.8 | 0.00 | 0.00 | 0.00 | 72 | 1015.6 |
| 20260903070303 | 18 | 223 | 0.0 | 3.2 | 0.00 | 0.00 | 0.00 | 72 | 1015.7 |
| 20260903070030 | 18 | 223 | 0.0 | 4.8 | 0.00 | 0.00 | 0.00 | 72 | 1015.7 |
| 20260903065257 | 18 | 223 | 1.6 | 4.8 | 0.00 | 0.00 | 0.00 | 72 | 1015.7 |
| 20260903064758 | 18 | 223 | 1.6 | 4.8 | 0.00 | 0.00 | 0.00 | 72 | 1015.7 |
| 20260903064254 | 19 | 223 | 1.6 | 4.8 | 0.00 | 0.00 | 0.00 | 72 | 1015.7 |
| 20260903063754 | 18 | 223 | 1.6 | 4.8 | 0.00 | 0.00 | 0.00 | 72 | 1015.7 |
| 20260903063255 | 18 | 223 | 1.6 | 4.8 | 0.00 | 0.00 | 0.00 | 72 | 1015.7 |
| 20260903062756 | 18 | 223 | 0.0 | 4.8 | 0.00 | 0.00 | 0.00 | 72 | 1015.6 |
| 20260903062253 | 18 | 223 | 0.0 | 4.8 | 0.00 | 0.00 | 0.00 | 72 | 1015.7 |
| 20260903061753 | 18 | 223 | 1.6 | 3.2 | 0.00 | 0.00 | 0.00 | 73 | 1015.7 |
| 20260903061246 | 18 | 223 | 1.6 | 3.2 | 0.00 | 0.00 | 0.00 | 74 | 1015.7 |
| 20260903060747 | 18 | 223 | 0.0 | 1.6 | 0.00 | 0.00 | 0.00 | 72 | 1015.7 |
| 20260903060246 | 18 | 223 | 0.0 | 1.6 | 0.00 | 0.00 | 0.00 | 73 | 1015.7 |
| 20260903055746 | 19 | 223 | 0.0 | 3.2 | 0.00 | 0.00 | 0.00 | 73 | 1015.7 |
| 20260903055245 | 19 | 223 | 0.0 | 3.2 | 0.00 | 0.00 | 0.00 | 73 | 1015.7 |
| 20260903054745 | 19 | 223 | 0.0 | 1.6 | 0.00 | 0.00 | 0.00 | 72 | 1015.7 |
| 20260903054245 | 19 | 223 | 1.6 | 8.0 | 0.00 | 0.00 | 0.00 | 73 | 1015.7 |
| 20260903054014 | 19 | 223 | 1.6 | 8.0 | 0.00 | 0.00 | 0.00 | 73 | 1015.6 |
| 20260903053240 | 19 | 223 | 0.0 | 3.2 | 0.00 | 0.00 | 0.00 | 72 | 1015.7 |
| 20260903052739 | 19 | 223 | 1.6 | 6.4 | 0.00 | 0.00 | 0.00 | 72 | 1015.7 |
| 20260903052507 | 20 | 223 | 3.2 | 6.4 | 0.00 | 0.00 | 0.00 | 73 | 1015.6 |
| 20260903051736 | 20 | 223 | 4.8 | 9.7 | 0.00 | 0.00 | 0.00 | 72 | 1015.6 |
| 20260903051510 | 20 | 223 | 4.8 | 9.7 | 0.00 | 0.00 | 0.00 | 72 | 1015.5 |
| 20260903051035 | 20 | 223 | 6.4 | 12.9 | 0.00 | 0.00 | 0.00 | 71 | 1015.4 |
| 20260903050516 | 20 | 223 | 6.4 | 14.5 | 0.00 | 0.00 | 0.00 | 71 | 1015.3 |
| 20260903050426 | 20 | 223 | 8.0 | 14.5 | 0.00 | 0.00 | 0.00 | 71 | 1015.4 |
| 20260903050123 | 20 | 217 | 8.0 | 16.1 | 0.00 | 0.00 | 0.00 | 71 | 1015.3 |
| 20260903045845 | 20 | 223 | 8.0 | 14.5 | 0.00 | 0.00 | 0.00 | 71 | 1015.3 |
| 20260903045748 | 20 | 219 | 8.0 | 14.5 | 0.00 | 0.00 | 0.00 | 71 | 1015.4 |
| 20260903043507 | 20 | 217 | 8.0 | 17.7 | 0.00 | 0.00 | 0.00 | 71 | 1015.3 |
| 20260903043247 | 20 | 217 | 8.0 | 17.7 | 0.00 | 0.00 | 0.00 | 71 | 1015.3 |
| 20260903043008 | 20 | 219 | 8.0 | 17.7 | 0.00 | 0.00 | 0.00 | 70 | 1015.2 |
| 20260903042749 | 20 | 219 | 8.0 | 17.7 | 0.00 | 0.00 | 0.00 | 70 | 1015.2 |
| 20260903042249 | 21 | 225 | 8.0 | 16.1 | 0.00 | 0.00 | 0.00 | 70 | 1015.1 |
| 20260903041735 | 21 | 218 | 8.0 | 16.1 | 0.00 | 0.00 | 0.00 | 70 | 1015.1 |
| 20260903041507 | 21 | 228 | 9.7 | 16.1 | 0.00 | 0.00 | 0.00 | 69 | 1015.1 |
| 20260903040733 | 21 | 227 | 9.7 | 14.5 | 0.00 | 0.00 | 0.00 | 69 | 1015.1 |
| 20260903040708 | 21 | 218 | 6.4 | 12.9 | 0.00 | 0.00 | 0.00 | 66 | 1014.8 |
| 20260903040621 | 21 | 215 | 8.0 | 14.5 | 0.00 | 0.00 | 0.00 | 68 | 1015.0 |
| 20260903040512 | 21 | 219 | 8.0 | 14.5 | 0.00 | 0.00 | 0.00 | 68 | 1014.9 |
| 20260903040417 | 21 | 216 | 8.0 | 14.5 | 0.00 | 0.00 | 0.00 | 67 | 1014.9 |
| 20260903034500 | 21 | 217 | 8.0 | 16.1 | 0.00 | 0.00 | 0.00 | 65 | 1014.7 |
| 20260903033729 | 22 | 218 | 9.7 | 16.1 | 0.00 | 0.00 | 0.00 | 65 | 1014.7 |
| 20260903033500 | 22 | 222 | 9.7 | 16.1 | 0.00 | 0.00 | 0.00 | 64 | 1014.5 |
| 20260903032955 | 22 | 221 | 9.7 | 17.7 | 0.00 | 0.00 | 0.00 | 64 | 1014.4 |